createdAt,value
2018-07-13T00:01:44.952Z,19.20
2018-07-13T00:04:12.711Z,19.50
2018-07-13T00:06:40.447Z,19.30
2018-07-13T00:09:09.911Z,19.30
2018-07-13T00:11:38.091Z,19.60
2018-07-13T00:14:28.615Z,19.60
2018-07-13T00:16:57.329Z,19.30
2018-07-13T00:19:25.551Z,19.30
2018-07-13T00:21:53.357Z,19.30
2018-07-13T00:24:21.099Z,19.20
2018-07-13T00:26:48.871Z,19.20
2018-07-13T00:29:16.623Z,19.20
2018-07-13T00:31:44.719Z,19.40
2018-07-13T00:34:12.541Z,19.20
2018-07-13T00:39:09.507Z,19.30
2018-07-13T00:41:37.266Z,19.00
2018-07-13T00:46:32.778Z,19.00
2018-07-13T00:49:00.518Z,18.80
2018-07-13T00:51:28.272Z,18.90
2018-07-13T00:53:56.040Z,18.70
2018-07-13T00:56:23.736Z,18.60
2018-07-13T00:58:51.907Z,18.90
2018-07-13T01:01:19.655Z,18.90
2018-07-13T01:03:47.373Z,18.90
2018-07-13T01:06:15.143Z,18.60
2018-07-13T01:08:42.851Z,18.70
2018-07-13T01:11:10.563Z,18.50
2018-07-13T01:13:38.284Z,18.80
2018-07-13T01:16:05.998Z,18.70
2018-07-13T01:18:33.743Z,18.60
2018-07-13T01:23:29.079Z,18.80
2018-07-13T01:25:56.843Z,18.60
2018-07-13T01:28:24.569Z,18.40
2018-07-13T01:30:52.307Z,18.60
2018-07-13T01:33:20.005Z,18.70
2018-07-13T01:35:47.699Z,18.50
2018-07-13T01:38:15.447Z,18.70
2018-07-13T01:40:43.188Z,18.50
2018-07-13T01:43:10.928Z,18.20
2018-07-13T01:45:38.646Z,18.30
2018-07-13T01:48:06.343Z,18.30
2018-07-13T01:50:34.071Z,18.20
2018-07-13T01:53:01.817Z,18.20
2018-07-13T01:55:29.597Z,18.10
2018-07-13T02:00:24.907Z,18.10
2018-07-13T02:05:20.238Z,18.10
2018-07-13T02:10:15.544Z,18.10
2018-07-13T02:12:43.249Z,18.00
2018-07-13T02:15:10.974Z,18.10
2018-07-13T02:17:38.706Z,18.00
2018-07-13T02:20:06.419Z,18.10
2018-07-13T02:25:01.747Z,17.50
2018-07-13T02:27:29.535Z,17.90
2018-07-13T02:29:57.256Z,17.70
2018-07-13T02:32:24.975Z,17.40
2018-07-13T02:34:52.725Z,17.40
2018-07-13T02:37:20.450Z,17.60
2018-07-13T02:39:48.196Z,17.40
2018-07-13T02:42:15.899Z,17.50
2018-07-13T02:44:43.659Z,17.40
2018-07-13T02:47:11.391Z,17.30
2018-07-13T02:49:39.110Z,17.40
2018-07-13T02:52:07.296Z,17.10
2018-07-13T02:54:35.083Z,16.80
2018-07-13T02:57:02.804Z,17.00
2018-07-13T02:59:30.563Z,16.90
2018-07-13T03:01:58.295Z,16.70
2018-07-13T03:04:25.991Z,16.90
2018-07-13T03:06:53.751Z,16.90
2018-07-13T03:09:21.481Z,16.70
2018-07-13T03:11:49.279Z,16.60
2018-07-13T03:14:16.972Z,16.80
2018-07-13T03:16:44.703Z,16.80
2018-07-13T03:21:40.047Z,16.70
2018-07-13T03:24:08.076Z,16.80
2018-07-13T03:26:35.779Z,16.80
2018-07-13T03:29:03.536Z,16.70
2018-07-13T03:31:31.275Z,16.60
2018-07-13T03:33:58.994Z,16.80
2018-07-13T03:36:26.727Z,16.50
2018-07-13T03:38:54.459Z,16.60
2018-07-13T03:41:22.155Z,16.80
2018-07-13T03:43:49.907Z,16.50
2018-07-13T03:46:17.644Z,16.60
2018-07-13T03:48:45.354Z,16.40
2018-07-13T03:51:13.115Z,16.70
2018-07-13T03:53:41.291Z,16.60
2018-07-13T03:56:09.067Z,16.40
2018-07-13T03:58:36.814Z,16.50
2018-07-13T04:01:04.579Z,16.70
2018-07-13T04:03:32.348Z,16.40
2018-07-13T04:06:00.076Z,16.60
2018-07-13T04:08:27.815Z,16.60
2018-07-13T04:10:55.546Z,16.70
2018-07-13T04:13:23.265Z,16.50
2018-07-13T04:15:51.012Z,16.60
2018-07-13T04:18:20.860Z,16.50
2018-07-13T04:20:49.146Z,16.50
2018-07-13T04:23:17.343Z,16.60
2018-07-13T04:25:45.205Z,16.80
2018-07-13T04:28:13.012Z,16.80
2018-07-13T04:30:41.480Z,16.60
2018-07-13T04:33:09.207Z,16.60
2018-07-13T04:35:36.987Z,16.60
2018-07-13T04:38:04.791Z,16.70
2018-07-13T04:40:32.500Z,16.60
2018-07-13T04:43:00.333Z,16.80
2018-07-13T04:45:28.164Z,16.80
2018-07-13T04:47:56.011Z,16.90
2018-07-13T04:50:23.899Z,16.80
2018-07-13T04:52:51.790Z,17.20
2018-07-13T04:55:19.649Z,17.10
2018-07-13T04:57:47.895Z,17.10
2018-07-13T05:00:15.775Z,17.20
2018-07-13T05:02:43.627Z,17.10
2018-07-13T05:05:11.772Z,17.10
2018-07-13T05:07:39.618Z,17.20
2018-07-13T05:10:07.480Z,17.10
2018-07-13T05:12:35.387Z,17.20
2018-07-13T05:15:03.811Z,17.30
2018-07-13T05:17:31.602Z,17.00
2018-07-13T05:19:59.326Z,17.30
2018-07-13T05:22:27.156Z,17.30
2018-07-13T05:24:54.987Z,17.40
2018-07-13T05:27:22.807Z,17.30
2018-07-13T05:29:50.655Z,17.70
2018-07-13T05:32:18.502Z,17.30
2018-07-13T05:34:46.356Z,17.20
2018-07-13T05:37:14.189Z,17.40
2018-07-13T05:39:42.019Z,17.40
2018-07-13T05:42:09.883Z,17.90
2018-07-13T05:44:37.784Z,17.60
2018-07-13T05:47:05.880Z,17.70
2018-07-13T05:49:33.682Z,17.80
2018-07-13T05:52:01.571Z,18.10
2018-07-13T05:54:29.459Z,18.10
2018-07-13T05:56:57.323Z,18.40
2018-07-13T05:59:25.179Z,18.00
2018-07-13T06:01:52.996Z,18.30
2018-07-13T06:04:20.832Z,18.10
2018-07-13T06:06:48.975Z,18.10
2018-07-13T06:09:16.855Z,18.00
2018-07-13T06:11:44.690Z,18.40
2018-07-13T06:14:12.427Z,18.50
2018-07-13T06:16:40.176Z,18.30
2018-07-13T06:19:07.937Z,18.60
2018-07-13T06:21:35.631Z,18.40
2018-07-13T06:24:03.424Z,18.50
2018-07-13T06:28:59.170Z,18.60
2018-07-13T06:31:27.010Z,18.80
2018-07-13T06:33:54.773Z,18.80
2018-07-13T06:36:22.573Z,18.70
2018-07-13T06:38:50.409Z,19.50
2018-07-13T06:43:45.850Z,19.70
2018-07-13T06:46:13.580Z,19.60
2018-07-13T06:48:41.391Z,19.60
2018-07-13T06:51:09.226Z,19.50
2018-07-13T06:53:36.976Z,19.60
2018-07-13T06:56:04.754Z,19.80
2018-07-13T06:58:43.723Z,20.10
2018-07-13T07:01:11.504Z,20.30
2018-07-13T07:04:49.802Z,20.40
2018-07-13T07:07:25.700Z,20.30
2018-07-13T07:09:58.438Z,20.30
2018-07-13T07:12:49.020Z,20.80
2018-07-13T07:15:16.785Z,20.80
2018-07-13T07:17:44.556Z,20.90
2018-07-13T07:22:39.899Z,20.90
2018-07-13T07:25:07.723Z,21.30
2018-07-13T07:27:35.477Z,21.20
2018-07-13T07:30:03.263Z,21.30
2018-07-13T07:32:30.990Z,21.30
2018-07-13T07:34:58.787Z,21.60
2018-07-13T07:39:54.094Z,21.80
2018-07-13T07:42:21.899Z,22.10
2018-07-13T07:44:49.755Z,21.80
2018-07-13T07:49:45.127Z,22.00
2018-07-13T07:52:12.908Z,22.10
2018-07-13T07:54:40.897Z,22.20
2018-07-13T07:57:08.633Z,22.20
2018-07-13T07:59:36.333Z,22.40
2018-07-13T08:04:31.659Z,22.70
2018-07-13T08:09:26.987Z,22.70
2018-07-13T08:11:54.695Z,23.00
2018-07-13T08:14:22.475Z,22.90
2018-07-13T08:16:50.168Z,23.50
2018-07-13T08:21:45.593Z,23.40
2018-07-13T08:24:16.945Z,23.90
2018-07-13T08:26:45.244Z,24.30
2018-07-13T08:29:14.346Z,24.10
2018-07-13T08:31:42.043Z,24.90
2018-07-13T08:34:09.753Z,25.40
2018-07-13T08:39:05.732Z,26.30
2018-07-13T08:41:33.551Z,25.90
2018-07-13T08:44:01.352Z,26.80
2018-07-13T08:46:29.175Z,27.30
2018-07-13T08:51:24.665Z,30.10
2018-07-13T08:53:52.442Z,29.80
2018-07-13T08:56:20.414Z,29.90
2018-07-13T08:58:48.148Z,29.60
2018-07-13T09:01:15.902Z,30.30
2018-07-13T09:03:43.671Z,31.90
2018-07-13T09:06:11.439Z,33.10
2018-07-13T09:08:39.532Z,33.00
2018-07-13T09:11:07.664Z,34.50
2018-07-13T09:13:35.430Z,34.00
2018-07-13T09:16:03.183Z,33.10
2018-07-13T09:20:58.548Z,33.40
2018-07-13T09:23:26.327Z,34.20
2018-07-13T09:25:54.079Z,33.30
2018-07-13T09:28:21.901Z,32.20
2018-07-13T09:30:49.635Z,32.40
2018-07-13T09:33:17.359Z,32.60
2018-07-13T09:35:45.167Z,33.20
2018-07-13T09:38:12.938Z,33.10
2018-07-13T09:40:40.752Z,33.60
2018-07-13T09:43:08.522Z,33.00
2018-07-13T09:45:36.280Z,34.40
2018-07-13T09:48:04.116Z,33.70
2018-07-13T09:50:31.915Z,34.50
2018-07-13T09:52:59.775Z,34.20
2018-07-13T09:55:27.504Z,35.20
2018-07-13T09:57:55.287Z,35.30
2018-07-13T10:00:27.581Z,35.60
2018-07-13T10:02:55.339Z,34.90
2018-07-13T10:05:23.095Z,35.60
2018-07-13T10:10:18.479Z,34.00
2018-07-13T10:12:46.231Z,33.90
2018-07-13T10:15:14.000Z,34.20
2018-07-13T10:17:41.780Z,33.70
2018-07-13T10:20:09.632Z,33.40
2018-07-13T10:22:37.484Z,32.90
2018-07-13T10:25:05.499Z,32.00
2018-07-13T10:30:03.491Z,30.50
2018-07-13T10:32:31.386Z,29.30
2018-07-13T10:35:00.207Z,30.20
2018-07-13T10:37:29.155Z,32.10
2018-07-13T10:42:24.513Z,33.90
2018-07-13T10:44:52.216Z,34.50
2018-07-13T10:47:19.976Z,34.60
2018-07-13T10:49:47.674Z,34.90
2018-07-13T10:52:15.415Z,34.90
2018-07-13T10:57:10.715Z,35.90
2018-07-13T10:59:38.478Z,37.00
2018-07-13T11:02:06.227Z,35.70
2018-07-13T11:04:33.943Z,36.50
2018-07-13T11:09:29.259Z,37.30
2018-07-13T11:11:56.967Z,37.60
2018-07-13T11:14:24.752Z,36.90
2018-07-13T11:16:52.549Z,37.40
2018-07-13T11:19:20.251Z,38.00
2018-07-13T11:21:48.039Z,38.20
2018-07-13T11:24:15.847Z,39.00
2018-07-13T11:26:43.566Z,39.30
2018-07-13T11:29:11.274Z,38.40
2018-07-13T11:31:39.032Z,38.00
2018-07-13T11:34:06.769Z,37.80
2018-07-13T11:36:34.543Z,37.80
2018-07-13T11:39:02.287Z,37.70
2018-07-13T11:41:29.995Z,38.20
2018-07-13T11:48:52.875Z,35.20
2018-07-13T11:51:20.587Z,35.10
2018-07-13T11:53:48.315Z,34.50
2018-07-13T11:58:43.671Z,36.10
2018-07-13T12:01:11.452Z,37.10
2018-07-13T12:03:39.196Z,36.40
2018-07-13T12:06:07.033Z,37.30
2018-07-13T12:11:02.392Z,37.20
2018-07-13T12:13:30.091Z,36.90
2018-07-13T12:15:57.887Z,37.80
2018-07-13T12:23:20.765Z,36.10
2018-07-13T12:28:16.142Z,35.90
2018-07-13T12:30:43.944Z,36.50
2018-07-13T12:33:12.345Z,37.10
2018-07-13T12:38:07.689Z,36.90
2018-07-13T12:40:35.410Z,37.00
2018-07-13T12:43:03.129Z,36.70
2018-07-13T12:45:30.842Z,36.00
2018-07-13T12:47:58.604Z,36.20
2018-07-13T12:50:26.335Z,35.20
2018-07-13T12:52:54.132Z,35.30
2018-07-13T12:55:21.861Z,35.50
2018-07-13T12:57:49.568Z,35.20
2018-07-13T13:00:17.309Z,35.80
2018-07-13T13:02:45.073Z,35.90
2018-07-13T13:05:12.785Z,35.80
2018-07-13T13:07:40.526Z,35.60
2018-07-13T13:10:08.383Z,36.40
2018-07-13T13:12:36.137Z,35.70
2018-07-13T13:15:03.958Z,36.10
2018-07-13T13:17:31.727Z,35.90
2018-07-13T13:20:00.307Z,36.40
2018-07-13T13:22:28.075Z,36.00
2018-07-13T13:24:56.144Z,35.60
2018-07-13T13:27:23.860Z,36.80
2018-07-13T13:29:51.595Z,36.40
2018-07-13T13:32:20.179Z,36.60
2018-07-13T13:34:47.891Z,37.30
2018-07-13T13:39:43.288Z,37.10
2018-07-13T13:42:11.108Z,37.10
2018-07-13T13:44:39.239Z,35.80
2018-07-13T13:47:06.989Z,33.90
2018-07-13T13:49:34.829Z,33.50
2018-07-13T13:52:02.642Z,33.40
2018-07-13T13:54:30.467Z,32.90
2018-07-13T13:56:58.212Z,33.50
2018-07-13T13:59:25.959Z,33.00
2018-07-13T14:01:53.711Z,33.30
2018-07-13T14:06:49.059Z,33.10
2018-07-13T14:09:16.904Z,32.30
2018-07-13T14:11:44.547Z,31.10
2018-07-13T14:14:12.283Z,31.40
2018-07-13T14:16:39.991Z,31.90
2018-07-13T14:21:35.362Z,32.20
2018-07-13T14:24:03.071Z,33.30
2018-07-13T14:26:30.826Z,33.10
2018-07-13T14:28:59.207Z,33.40
2018-07-13T14:33:55.044Z,33.80
2018-07-13T14:36:22.791Z,33.60
2018-07-13T14:38:50.512Z,33.60
2018-07-13T14:41:18.282Z,33.50
2018-07-13T14:43:46.075Z,33.40
2018-07-13T14:46:14.327Z,33.40
2018-07-13T14:48:42.090Z,32.70
2018-07-13T14:51:09.850Z,31.70
2018-07-13T14:53:37.679Z,32.10
2018-07-13T14:56:05.414Z,32.70
2018-07-13T14:58:33.135Z,32.80
2018-07-13T15:01:00.882Z,32.70
2018-07-13T15:05:56.320Z,32.80
2018-07-13T15:10:51.697Z,32.20
2018-07-13T15:13:19.415Z,32.20
2018-07-13T15:15:47.171Z,31.80
2018-07-13T15:20:42.622Z,31.50
2018-07-13T15:23:10.319Z,32.40
2018-07-13T15:25:38.044Z,32.10
2018-07-13T15:28:05.814Z,31.70
2018-07-13T15:30:33.563Z,31.70
2018-07-13T15:33:01.498Z,31.60
2018-07-13T15:35:29.262Z,31.80
2018-07-13T15:37:57.023Z,31.60
2018-07-13T15:40:24.738Z,31.90
2018-07-13T15:42:52.545Z,31.50
2018-07-13T15:45:20.335Z,31.50
2018-07-13T15:47:48.208Z,31.30
2018-07-13T15:50:16.105Z,30.90
2018-07-13T15:52:43.789Z,30.40
2018-07-13T15:55:11.551Z,29.40
2018-07-13T15:57:39.316Z,29.30
2018-07-13T16:00:07.084Z,29.30
2018-07-13T16:02:34.839Z,29.80
2018-07-13T16:05:02.580Z,30.00
2018-07-13T16:07:30.316Z,30.50
2018-07-13T16:12:25.735Z,29.90
2018-07-13T16:14:53.488Z,30.30
2018-07-13T16:17:21.207Z,30.20
2018-07-13T16:19:48.947Z,30.50
2018-07-13T16:22:16.694Z,30.50
2018-07-13T16:24:44.458Z,30.40
2018-07-13T16:27:12.163Z,30.60
2018-07-13T16:29:39.947Z,30.00
2018-07-13T16:32:07.655Z,29.90
2018-07-13T16:34:35.399Z,29.70
2018-07-13T16:37:03.188Z,29.50
2018-07-13T16:39:30.955Z,29.40
2018-07-13T16:44:26.395Z,29.40
2018-07-13T16:46:54.153Z,29.40
2018-07-13T16:49:21.867Z,29.50
2018-07-13T16:51:49.628Z,29.30
2018-07-13T16:54:17.391Z,29.10
2018-07-13T16:56:45.749Z,29.40
2018-07-13T16:59:13.474Z,28.80
2018-07-13T17:01:41.213Z,28.80
2018-07-13T17:04:08.908Z,28.90
2018-07-13T17:09:05.029Z,29.10
2018-07-13T17:11:32.839Z,28.70
2018-07-13T17:14:00.547Z,28.70
2018-07-13T17:16:28.293Z,28.70
2018-07-13T17:18:56.015Z,28.60
2018-07-13T17:21:23.754Z,28.60
2018-07-13T17:23:51.564Z,28.50
2018-07-13T17:26:19.347Z,28.40
2018-07-13T17:28:48.319Z,28.50
2018-07-13T17:31:16.044Z,28.50
2018-07-13T17:33:43.834Z,28.50
2018-07-13T17:36:11.604Z,28.10
2018-07-13T17:38:39.383Z,28.10
2018-07-13T17:41:07.219Z,28.00
2018-07-13T17:43:34.942Z,28.00
2018-07-13T17:46:02.738Z,27.80
2018-07-13T17:48:30.676Z,27.50
2018-07-13T17:50:58.427Z,27.70
2018-07-13T17:53:26.273Z,27.50
2018-07-13T17:55:54.076Z,27.40
2018-07-13T17:58:21.829Z,27.30
2018-07-13T18:00:49.594Z,27.40
2018-07-13T18:03:17.299Z,27.40
2018-07-13T18:05:45.009Z,27.30
2018-07-13T18:08:12.750Z,27.30
2018-07-13T18:10:40.472Z,27.20
2018-07-13T18:13:08.289Z,27.10
2018-07-13T18:15:36.344Z,27.00
2018-07-13T18:18:04.150Z,27.10
2018-07-13T18:20:31.880Z,27.10
2018-07-13T18:22:59.694Z,26.80
2018-07-13T18:25:27.641Z,26.60
2018-07-13T18:27:56.306Z,26.50
2018-07-13T18:30:24.068Z,26.20
2018-07-13T18:32:51.799Z,26.00
2018-07-13T18:35:19.531Z,26.30
2018-07-13T18:37:48.279Z,26.10
2018-07-13T18:40:16.114Z,26.20
2018-07-13T18:42:43.955Z,26.20
2018-07-13T18:45:11.797Z,25.90
2018-07-13T18:47:39.595Z,25.90
2018-07-13T18:50:07.405Z,26.00
2018-07-13T18:52:35.182Z,25.60
2018-07-13T18:55:03.069Z,25.70
2018-07-13T18:57:30.893Z,25.60
2018-07-13T19:02:26.359Z,25.40
2018-07-13T19:04:54.103Z,25.10
2018-07-13T19:07:22.851Z,25.40
2018-07-13T19:09:50.584Z,25.20
2018-07-13T19:12:18.366Z,25.40
2018-07-13T19:14:46.204Z,25.00
2018-07-13T19:17:14.020Z,24.70
2018-07-13T19:19:41.752Z,24.70
2018-07-13T19:22:09.555Z,24.70
2018-07-13T19:24:37.295Z,24.40
2018-07-13T19:27:05.036Z,24.40
2018-07-13T19:29:32.780Z,24.40
2018-07-13T19:32:00.497Z,24.30
2018-07-13T19:34:28.266Z,23.90
2018-07-13T19:36:55.996Z,24.20
2018-07-13T19:39:23.727Z,23.90
2018-07-13T19:41:51.444Z,23.80
2018-07-13T19:44:19.191Z,24.00
2018-07-13T19:46:46.910Z,23.90
2018-07-13T19:51:42.302Z,23.60
2018-07-13T19:56:37.561Z,23.70
2018-07-13T20:01:32.885Z,23.50
2018-07-13T20:04:00.656Z,23.30
2018-07-13T20:06:28.411Z,23.30
2018-07-13T20:08:56.147Z,23.30
2018-07-13T20:11:23.943Z,23.30
2018-07-13T20:16:19.305Z,23.50
2018-07-13T20:18:46.998Z,23.00
2018-07-13T20:21:14.732Z,23.50
2018-07-13T20:23:42.522Z,23.00
2018-07-13T20:26:10.259Z,22.80
2018-07-13T20:28:37.984Z,22.90
2018-07-13T20:31:05.761Z,22.70
2018-07-13T20:33:33.589Z,22.40
2018-07-13T20:36:01.314Z,22.70
2018-07-13T20:38:29.035Z,22.50
2018-07-13T20:40:56.747Z,22.40
2018-07-13T20:43:24.467Z,22.30
2018-07-13T20:45:52.202Z,22.40
2018-07-13T20:48:19.931Z,22.30
2018-07-13T20:50:47.630Z,22.00
2018-07-13T20:53:15.403Z,22.20
2018-07-13T20:55:43.158Z,22.10
2018-07-13T20:58:10.871Z,22.10
2018-07-13T21:00:38.608Z,21.90
2018-07-13T21:03:06.333Z,22.00
2018-07-13T21:05:34.104Z,21.70
2018-07-13T21:08:01.836Z,21.60
2018-07-13T21:10:29.876Z,21.90
2018-07-13T21:15:25.742Z,21.40
2018-07-13T21:17:54.572Z,21.60
2018-07-13T21:20:22.447Z,21.10
2018-07-13T21:22:50.145Z,21.50
2018-07-13T21:27:45.535Z,21.40
2018-07-13T21:30:13.621Z,21.50
2018-07-13T21:35:09.035Z,21.30
2018-07-13T21:37:36.750Z,21.20
2018-07-13T21:40:04.926Z,21.20
2018-07-13T21:42:32.915Z,21.30
2018-07-13T21:45:00.799Z,21.10
2018-07-13T21:47:28.511Z,21.10
2018-07-13T21:49:56.488Z,21.00
2018-07-13T21:52:24.199Z,20.90
2018-07-13T21:54:52.523Z,21.00
2018-07-13T21:57:20.240Z,20.40
2018-07-13T21:59:47.971Z,21.20
2018-07-13T22:02:15.750Z,20.90
2018-07-13T22:04:44.423Z,20.80
2018-07-13T22:07:12.261Z,20.80
2018-07-13T22:12:08.436Z,20.70
2018-07-13T22:14:36.510Z,20.50
2018-07-13T22:17:04.306Z,20.90
2018-07-13T22:19:32.040Z,20.80
2018-07-13T22:21:59.827Z,20.80
2018-07-13T22:24:27.580Z,20.70
2018-07-13T22:26:55.545Z,20.50
2018-07-13T22:29:23.286Z,20.30
2018-07-13T22:31:51.081Z,20.30
2018-07-13T22:34:18.869Z,20.40
2018-07-13T22:36:46.644Z,20.40
2018-07-13T22:39:14.372Z,20.40
2018-07-13T22:41:42.180Z,20.50
2018-07-13T22:46:37.602Z,20.30
2018-07-13T22:49:05.357Z,20.40
2018-07-13T22:51:33.129Z,20.30
2018-07-13T22:54:00.855Z,20.20
2018-07-13T22:56:28.619Z,20.30
2018-07-13T22:58:56.359Z,20.40
2018-07-13T23:01:24.116Z,20.20
2018-07-13T23:08:47.108Z,20.10
2018-07-13T23:11:14.883Z,20.30
2018-07-13T23:13:42.633Z,20.40
2018-07-13T23:16:10.407Z,20.00
2018-07-13T23:18:38.184Z,20.20
2018-07-13T23:21:06.096Z,20.00
2018-07-13T23:23:33.867Z,20.30
2018-07-13T23:26:01.591Z,19.60
2018-07-13T23:28:29.307Z,19.80
2018-07-13T23:30:57.107Z,19.50
2018-07-13T23:33:24.915Z,19.40
2018-07-13T23:35:52.671Z,19.40
2018-07-13T23:38:20.379Z,19.50
2018-07-13T23:40:48.113Z,19.50
2018-07-13T23:43:16.016Z,19.80
2018-07-13T23:45:43.906Z,19.50
2018-07-13T23:48:11.660Z,19.50
2018-07-13T23:50:39.471Z,19.40
2018-07-13T23:53:07.231Z,19.60
2018-07-13T23:55:34.958Z,19.60
2018-07-13T23:58:02.730Z,19.40
